sensor_id;sensor_type;location;lat;lon;timestamp;P1;durP1;ratioP1;P2;durP2;ratioP2
29724;SDS011;16636;48.394;15.468;2023-01-25T00:01:04;19.60;;;7.38;;
29724;SDS011;16636;48.394;15.468;2023-01-25T00:03:30;16.45;;;7.43;;
29724;SDS011;16636;48.394;15.468;2023-01-25T00:05:57;17.58;;;7.93;;
29724;SDS011;16636;48.394;15.468;2023-01-25T00:08:25;13.27;;;6.63;;
29724;SDS011;16636;48.394;15.468;2023-01-25T00:10:52;15.38;;;7.28;;
29724;SDS011;16636;48.394;15.468;2023-01-25T00:13:19;16.48;;;8.48;;
29724;SDS011;16636;48.394;15.468;2023-01-25T00:15:46;16.05;;;8.48;;
29724;SDS011;16636;48.394;15.468;2023-01-25T00:18:12;16.25;;;7.78;;
29724;SDS011;16636;48.394;15.468;2023-01-25T00:20:37;16.67;;;8.63;;
29724;SDS011;16636;48.394;15.468;2023-01-25T00:23:05;20.02;;;8.93;;
29724;SDS011;16636;48.394;15.468;2023-01-25T00:25:31;21.90;;;7.80;;
29724;SDS011;16636;48.394;15.468;2023-01-25T00:27:57;22.60;;;9.35;;
29724;SDS011;16636;48.394;15.468;2023-01-25T00:30:23;17.15;;;7.97;;
29724;SDS011;16636;48.394;15.468;2023-01-25T00:35:44;21.52;;;9.68;;
29724;SDS011;16636;48.394;15.468;2023-01-25T00:38:47;19.83;;;9.05;;
29724;SDS011;16636;48.394;15.468;2023-01-25T00:41:07;19.98;;;8.63;;
29724;SDS011;16636;48.394;15.468;2023-01-25T00:43:35;22.15;;;9.75;;
29724;SDS011;16636;48.394;15.468;2023-01-25T00:46:01;22.35;;;10.05;;
29724;SDS011;16636;48.394;15.468;2023-01-25T00:48:28;18.92;;;9.05;;
29724;SDS011;16636;48.394;15.468;2023-01-25T00:50:59;23.08;;;9.65;;
29724;SDS011;16636;48.394;15.468;2023-01-25T00:53:26;22.10;;;9.38;;
29724;SDS011;16636;48.394;15.468;2023-01-25T00:55:53;21.45;;;9.05;;
29724;SDS011;16636;48.394;15.468;2023-01-25T00:58:19;22.88;;;9.05;;
29724;SDS011;16636;48.394;15.468;2023-01-25T01:00:45;28.38;;;10.65;;
29724;SDS011;16636;48.394;15.468;2023-01-25T01:03:11;23.00;;;10.00;;
29724;SDS011;16636;48.394;15.468;2023-01-25T01:05:37;20.02;;;9.02;;
29724;SDS011;16636;48.394;15.468;2023-01-25T01:08:03;18.80;;;9.07;;
29724;SDS011;16636;48.394;15.468;2023-01-25T01:10:29;22.80;;;10.02;;
29724;SDS011;16636;48.394;15.468;2023-01-25T01:12:56;22.95;;;9.45;;
29724;SDS011;16636;48.394;15.468;2023-01-25T01:15:22;19.98;;;9.68;;
29724;SDS011;16636;48.394;15.468;2023-01-25T01:17:48;24.98;;;9.45;;
29724;SDS011;16636;48.394;15.468;2023-01-25T01:20:14;17.02;;;8.25;;
29724;SDS011;16636;48.394;15.468;2023-01-25T01:22:40;28.98;;;10.40;;
29724;SDS011;16636;48.394;15.468;2023-01-25T01:25:07;21.88;;;9.73;;
29724;SDS011;16636;48.394;15.468;2023-01-25T01:27:33;24.55;;;10.60;;
29724;SDS011;16636;48.394;15.468;2023-01-25T01:29:59;28.05;;;10.80;;
29724;SDS011;16636;48.394;15.468;2023-01-25T01:32:27;29.23;;;9.98;;
29724;SDS011;16636;48.394;15.468;2023-01-25T01:34:54;25.52;;;10.40;;
29724;SDS011;16636;48.394;15.468;2023-01-25T01:37:20;19.77;;;10.50;;
29724;SDS011;16636;48.394;15.468;2023-01-25T01:39:46;22.65;;;10.73;;
29724;SDS011;16636;48.394;15.468;2023-01-25T01:42:12;20.13;;;8.88;;
29724;SDS011;16636;48.394;15.468;2023-01-25T01:44:50;21.15;;;8.52;;
29724;SDS011;16636;48.394;15.468;2023-01-25T01:47:31;22.52;;;9.73;;
29724;SDS011;16636;48.394;15.468;2023-01-25T01:50:07;18.95;;;9.43;;
29724;SDS011;16636;48.394;15.468;2023-01-25T01:52:43;20.65;;;9.85;;
29724;SDS011;16636;48.394;15.468;2023-01-25T01:55:13;26.80;;;10.27;;
29724;SDS011;16636;48.394;15.468;2023-01-25T01:57:47;23.30;;;10.00;;
29724;SDS011;16636;48.394;15.468;2023-01-25T02:00:20;21.77;;;10.82;;
29724;SDS011;16636;48.394;15.468;2023-01-25T02:02:54;21.70;;;10.40;;
29724;SDS011;16636;48.394;15.468;2023-01-25T02:07:56;20.27;;;9.10;;
29724;SDS011;16636;48.394;15.468;2023-01-25T02:10:23;21.40;;;9.27;;
29724;SDS011;16636;48.394;15.468;2023-01-25T02:12:54;18.38;;;8.88;;
29724;SDS011;16636;48.394;15.468;2023-01-25T02:15:21;21.70;;;9.68;;
29724;SDS011;16636;48.394;15.468;2023-01-25T02:17:48;26.65;;;10.40;;
29724;SDS011;16636;48.394;15.468;2023-01-25T02:20:39;27.23;;;10.77;;
29724;SDS011;16636;48.394;15.468;2023-01-25T02:25:43;21.88;;;10.07;;
29724;SDS011;16636;48.394;15.468;2023-01-25T02:28:17;22.50;;;10.05;;
29724;SDS011;16636;48.394;15.468;2023-01-25T02:30:44;20.85;;;10.32;;
29724;SDS011;16636;48.394;15.468;2023-01-25T02:33:13;21.85;;;10.00;;
29724;SDS011;16636;48.394;15.468;2023-01-25T02:35:45;24.15;;;9.45;;
29724;SDS011;16636;48.394;15.468;2023-01-25T02:38:18;25.73;;;10.63;;
29724;SDS011;16636;48.394;15.468;2023-01-25T02:43:21;26.30;;;10.15;;
29724;SDS011;16636;48.394;15.468;2023-01-25T02:45:53;20.58;;;9.32;;
29724;SDS011;16636;48.394;15.468;2023-01-25T02:48:28;25.10;;;10.15;;
29724;SDS011;16636;48.394;15.468;2023-01-25T02:50:54;21.55;;;9.35;;
29724;SDS011;16636;48.394;15.468;2023-01-25T02:53:20;22.17;;;9.63;;
29724;SDS011;16636;48.394;15.468;2023-01-25T02:55:46;22.23;;;10.48;;
29724;SDS011;16636;48.394;15.468;2023-01-25T02:58:12;24.25;;;10.20;;
29724;SDS011;16636;48.394;15.468;2023-01-25T03:00:38;20.73;;;9.80;;
29724;SDS011;16636;48.394;15.468;2023-01-25T03:03:04;25.17;;;11.45;;
29724;SDS011;16636;48.394;15.468;2023-01-25T03:05:33;20.50;;;9.45;;
29724;SDS011;16636;48.394;15.468;2023-01-25T03:08:01;25.02;;;10.48;;
29724;SDS011;16636;48.394;15.468;2023-01-25T03:10:28;22.42;;;10.65;;
29724;SDS011;16636;48.394;15.468;2023-01-25T03:12:54;23.95;;;9.73;;
29724;SDS011;16636;48.394;15.468;2023-01-25T03:15:21;24.42;;;9.80;;
29724;SDS011;16636;48.394;15.468;2023-01-25T03:17:49;22.35;;;10.60;;
29724;SDS011;16636;48.394;15.468;2023-01-25T03:20:15;19.70;;;9.38;;
29724;SDS011;16636;48.394;15.468;2023-01-25T03:22:42;21.40;;;9.43;;
29724;SDS011;16636;48.394;15.468;2023-01-25T03:25:08;18.58;;;8.88;;
29724;SDS011;16636;48.394;15.468;2023-01-25T03:27:35;25.00;;;8.77;;
29724;SDS011;16636;48.394;15.468;2023-01-25T03:30:06;19.15;;;8.80;;
29724;SDS011;16636;48.394;15.468;2023-01-25T03:32:34;18.38;;;8.88;;
29724;SDS011;16636;48.394;15.468;2023-01-25T03:35:06;19.10;;;8.60;;
29724;SDS011;16636;48.394;15.468;2023-01-25T03:37:33;23.65;;;9.75;;
29724;SDS011;16636;48.394;15.468;2023-01-25T03:39:59;24.05;;;9.98;;
29724;SDS011;16636;48.394;15.468;2023-01-25T03:42:25;17.17;;;8.55;;
29724;SDS011;16636;48.394;15.468;2023-01-25T03:44:56;22.95;;;10.13;;
29724;SDS011;16636;48.394;15.468;2023-01-25T03:47:22;20.95;;;9.55;;
29724;SDS011;16636;48.394;15.468;2023-01-25T03:49:49;20.92;;;9.05;;
29724;SDS011;16636;48.394;15.468;2023-01-25T03:52:17;20.52;;;9.10;;
29724;SDS011;16636;48.394;15.468;2023-01-25T03:54:45;25.00;;;8.80;;
29724;SDS011;16636;48.394;15.468;2023-01-25T03:57:12;24.70;;;8.40;;
29724;SDS011;16636;48.394;15.468;2023-01-25T03:59:58;17.30;;;8.20;;
29724;SDS011;16636;48.394;15.468;2023-01-25T04:02:25;25.02;;;10.15;;
29724;SDS011;16636;48.394;15.468;2023-01-25T04:04:51;17.35;;;8.45;;
29724;SDS011;16636;48.394;15.468;2023-01-25T04:07:20;19.58;;;8.45;;
29724;SDS011;16636;48.394;15.468;2023-01-25T04:09:47;20.02;;;8.90;;
29724;SDS011;16636;48.394;15.468;2023-01-25T04:12:15;21.30;;;8.27;;
29724;SDS011;16636;48.394;15.468;2023-01-25T04:14:42;20.77;;;9.77;;
29724;SDS011;16636;48.394;15.468;2023-01-25T04:17:08;18.30;;;9.07;;
29724;SDS011;16636;48.394;15.468;2023-01-25T04:19:35;19.52;;;9.13;;
29724;SDS011;16636;48.394;15.468;2023-01-25T04:22:03;23.60;;;10.13;;
29724;SDS011;16636;48.394;15.468;2023-01-25T04:24:34;21.17;;;9.95;;
29724;SDS011;16636;48.394;15.468;2023-01-25T04:27:01;19.92;;;9.40;;
29724;SDS011;16636;48.394;15.468;2023-01-25T04:29:34;20.02;;;9.07;;
29724;SDS011;16636;48.394;15.468;2023-01-25T04:32:01;18.92;;;8.50;;
29724;SDS011;16636;48.394;15.468;2023-01-25T04:34:28;21.05;;;8.43;;
29724;SDS011;16636;48.394;15.468;2023-01-25T04:36:54;18.48;;;8.60;;
29724;SDS011;16636;48.394;15.468;2023-01-25T04:39:22;23.13;;;10.10;;
29724;SDS011;16636;48.394;15.468;2023-01-25T04:41:48;19.70;;;8.23;;
29724;SDS011;16636;48.394;15.468;2023-01-25T04:44:15;19.27;;;8.80;;
29724;SDS011;16636;48.394;15.468;2023-01-25T04:46:43;18.55;;;8.35;;
29724;SDS011;16636;48.394;15.468;2023-01-25T04:49:10;23.92;;;10.45;;
29724;SDS011;16636;48.394;15.468;2023-01-25T04:51:36;22.50;;;10.25;;
29724;SDS011;16636;48.394;15.468;2023-01-25T04:54:02;18.52;;;9.45;;
29724;SDS011;16636;48.394;15.468;2023-01-25T04:56:31;21.75;;;9.57;;
29724;SDS011;16636;48.394;15.468;2023-01-25T04:58:58;21.20;;;9.32;;
29724;SDS011;16636;48.394;15.468;2023-01-25T05:01:25;19.23;;;9.93;;
29724;SDS011;16636;48.394;15.468;2023-01-25T05:03:51;20.35;;;9.23;;
29724;SDS011;16636;48.394;15.468;2023-01-25T05:06:37;19.55;;;8.88;;
29724;SDS011;16636;48.394;15.468;2023-01-25T05:09:03;17.05;;;8.27;;
29724;SDS011;16636;48.394;15.468;2023-01-25T05:11:32;18.75;;;8.35;;
29724;SDS011;16636;48.394;15.468;2023-01-25T05:14:11;17.10;;;8.43;;
29724;SDS011;16636;48.394;15.468;2023-01-25T05:16:37;16.90;;;7.55;;
29724;SDS011;16636;48.394;15.468;2023-01-25T05:19:07;20.88;;;8.82;;
29724;SDS011;16636;48.394;15.468;2023-01-25T05:21:44;18.65;;;8.32;;
29724;SDS011;16636;48.394;15.468;2023-01-25T05:24:27;27.27;;;12.07;;
29724;SDS011;16636;48.394;15.468;2023-01-25T05:26:57;22.25;;;10.05;;
29724;SDS011;16636;48.394;15.468;2023-01-25T05:29:54;35.20;;;14.90;;
29724;SDS011;16636;48.394;15.468;2023-01-25T05:32:28;51.63;;;20.50;;
29724;SDS011;16636;48.394;15.468;2023-01-25T05:34:55;43.85;;;17.23;;
29724;SDS011;16636;48.394;15.468;2023-01-25T05:37:22;39.65;;;16.52;;
29724;SDS011;16636;48.394;15.468;2023-01-25T05:39:56;29.88;;;12.18;;
29724;SDS011;16636;48.394;15.468;2023-01-25T05:42:23;20.65;;;9.30;;
29724;SDS011;16636;48.394;15.468;2023-01-25T05:44:49;26.08;;;10.30;;
29724;SDS011;16636;48.394;15.468;2023-01-25T05:47:16;24.45;;;10.73;;
29724;SDS011;16636;48.394;15.468;2023-01-25T05:49:43;39.72;;;14.20;;
29724;SDS011;16636;48.394;15.468;2023-01-25T05:52:15;26.05;;;11.38;;
29724;SDS011;16636;48.394;15.468;2023-01-25T05:54:42;27.38;;;10.95;;
29724;SDS011;16636;48.394;15.468;2023-01-25T05:57:12;23.75;;;9.73;;
29724;SDS011;16636;48.394;15.468;2023-01-25T05:59:38;27.75;;;10.32;;
29724;SDS011;16636;48.394;15.468;2023-01-25T06:02:07;21.02;;;9.07;;
29724;SDS011;16636;48.394;15.468;2023-01-25T06:04:33;20.15;;;8.45;;
29724;SDS011;16636;48.394;15.468;2023-01-25T06:07:01;14.98;;;8.20;;
29724;SDS011;16636;48.394;15.468;2023-01-25T06:09:27;22.15;;;10.15;;
29724;SDS011;16636;48.394;15.468;2023-01-25T06:11:54;19.70;;;9.43;;
29724;SDS011;16636;48.394;15.468;2023-01-25T06:14:22;19.10;;;8.27;;
29724;SDS011;16636;48.394;15.468;2023-01-25T06:16:48;20.77;;;9.27;;
29724;SDS011;16636;48.394;15.468;2023-01-25T06:19:33;21.05;;;9.48;;
29724;SDS011;16636;48.394;15.468;2023-01-25T06:22:10;16.83;;;7.57;;
29724;SDS011;16636;48.394;15.468;2023-01-25T06:24:36;24.25;;;9.73;;
29724;SDS011;16636;48.394;15.468;2023-01-25T06:27:02;25.98;;;9.77;;
29724;SDS011;16636;48.394;15.468;2023-01-25T06:29:31;20.77;;;9.80;;
29724;SDS011;16636;48.394;15.468;2023-01-25T06:31:58;28.98;;;13.43;;
29724;SDS011;16636;48.394;15.468;2023-01-25T06:34:24;20.73;;;9.88;;
29724;SDS011;16636;48.394;15.468;2023-01-25T06:36:52;18.67;;;8.90;;
29724;SDS011;16636;48.394;15.468;2023-01-25T06:39:21;23.15;;;9.65;;
29724;SDS011;16636;48.394;15.468;2023-01-25T06:41:48;19.70;;;9.52;;
29724;SDS011;16636;48.394;15.468;2023-01-25T06:44:16;19.48;;;8.93;;
29724;SDS011;16636;48.394;15.468;2023-01-25T06:46:42;23.65;;;9.82;;
29724;SDS011;16636;48.394;15.468;2023-01-25T06:49:09;21.17;;;9.68;;
29724;SDS011;16636;48.394;15.468;2023-01-25T06:51:39;19.90;;;8.93;;
29724;SDS011;16636;48.394;15.468;2023-01-25T06:54:06;20.77;;;8.73;;
29724;SDS011;16636;48.394;15.468;2023-01-25T06:56:33;25.02;;;11.55;;
29724;SDS011;16636;48.394;15.468;2023-01-25T06:58:59;24.88;;;10.80;;
29724;SDS011;16636;48.394;15.468;2023-01-25T07:01:25;27.50;;;13.82;;
29724;SDS011;16636;48.394;15.468;2023-01-25T07:03:53;29.63;;;15.05;;
29724;SDS011;16636;48.394;15.468;2023-01-25T07:06:21;35.40;;;13.63;;
29724;SDS011;16636;48.394;15.468;2023-01-25T07:08:47;26.90;;;13.45;;
29724;SDS011;16636;48.394;15.468;2023-01-25T07:11:13;29.42;;;13.73;;
29724;SDS011;16636;48.394;15.468;2023-01-25T07:13:42;30.77;;;12.80;;
29724;SDS011;16636;48.394;15.468;2023-01-25T07:16:14;30.85;;;12.60;;
29724;SDS011;16636;48.394;15.468;2023-01-25T07:18:44;20.55;;;10.70;;
29724;SDS011;16636;48.394;15.468;2023-01-25T07:21:16;22.15;;;11.02;;
29724;SDS011;16636;48.394;15.468;2023-01-25T07:23:47;20.95;;;9.55;;
29724;SDS011;16636;48.394;15.468;2023-01-25T07:26:16;24.00;;;9.75;;
29724;SDS011;16636;48.394;15.468;2023-01-25T07:28:49;23.30;;;9.98;;
29724;SDS011;16636;48.394;15.468;2023-01-25T07:31:17;24.35;;;10.35;;
29724;SDS011;16636;48.394;15.468;2023-01-25T07:33:51;24.25;;;8.77;;
29724;SDS011;16636;48.394;15.468;2023-01-25T07:36:19;18.52;;;9.68;;
29724;SDS011;16636;48.394;15.468;2023-01-25T07:38:46;27.67;;;10.90;;
29724;SDS011;16636;48.394;15.468;2023-01-25T07:41:12;29.42;;;12.45;;
29724;SDS011;16636;48.394;15.468;2023-01-25T07:43:40;27.58;;;11.85;;
29724;SDS011;16636;48.394;15.468;2023-01-25T07:46:09;26.77;;;12.05;;
29724;SDS011;16636;48.394;15.468;2023-01-25T07:48:37;31.30;;;11.73;;
29724;SDS011;16636;48.394;15.468;2023-01-25T07:51:05;30.15;;;11.55;;
29724;SDS011;16636;48.394;15.468;2023-01-25T07:56:16;22.13;;;9.50;;
29724;SDS011;16636;48.394;15.468;2023-01-25T07:58:44;23.20;;;10.45;;
29724;SDS011;16636;48.394;15.468;2023-01-25T08:01:19;26.90;;;9.95;;
29724;SDS011;16636;48.394;15.468;2023-01-25T08:03:46;26.23;;;9.70;;
29724;SDS011;16636;48.394;15.468;2023-01-25T08:06:14;29.17;;;9.93;;
29724;SDS011;16636;48.394;15.468;2023-01-25T08:08:44;30.80;;;11.38;;
29724;SDS011;16636;48.394;15.468;2023-01-25T08:13:43;33.40;;;12.93;;
29724;SDS011;16636;48.394;15.468;2023-01-25T08:16:13;24.63;;;11.07;;
29724;SDS011;16636;48.394;15.468;2023-01-25T08:18:47;25.60;;;10.53;;
29724;SDS011;16636;48.394;15.468;2023-01-25T08:21:24;24.60;;;9.52;;
29724;SDS011;16636;48.394;15.468;2023-01-25T08:23:55;24.05;;;10.20;;
29724;SDS011;16636;48.394;15.468;2023-01-25T08:26:22;19.45;;;8.82;;
29724;SDS011;16636;48.394;15.468;2023-01-25T08:28:49;24.42;;;10.32;;
29724;SDS011;16636;48.394;15.468;2023-01-25T08:31:23;22.73;;;9.43;;
29724;SDS011;16636;48.394;15.468;2023-01-25T08:33:50;25.55;;;9.63;;
29724;SDS011;16636;48.394;15.468;2023-01-25T08:36:17;25.35;;;10.10;;
29724;SDS011;16636;48.394;15.468;2023-01-25T08:38:45;25.77;;;11.38;;
29724;SDS011;16636;48.394;15.468;2023-01-25T08:41:12;25.30;;;10.23;;
29724;SDS011;16636;48.394;15.468;2023-01-25T08:43:44;23.95;;;9.77;;
29724;SDS011;16636;48.394;15.468;2023-01-25T08:46:13;19.05;;;8.80;;
29724;SDS011;16636;48.394;15.468;2023-01-25T08:48:40;19.88;;;8.82;;
29724;SDS011;16636;48.394;15.468;2023-01-25T08:51:07;24.35;;;10.23;;
29724;SDS011;16636;48.394;15.468;2023-01-25T08:53:34;35.53;;;13.77;;
29724;SDS011;16636;48.394;15.468;2023-01-25T08:56:07;33.35;;;12.52;;
29724;SDS011;16636;48.394;15.468;2023-01-25T08:58:35;21.77;;;9.13;;
29724;SDS011;16636;48.394;15.468;2023-01-25T09:01:04;38.22;;;12.52;;
29724;SDS011;16636;48.394;15.468;2023-01-25T09:03:35;36.45;;;10.25;;
29724;SDS011;16636;48.394;15.468;2023-01-25T09:06:03;42.08;;;16.38;;
29724;SDS011;16636;48.394;15.468;2023-01-25T09:08:30;44.22;;;15.93;;
29724;SDS011;16636;48.394;15.468;2023-01-25T09:11:04;19.63;;;9.05;;
29724;SDS011;16636;48.394;15.468;2023-01-25T09:13:33;29.50;;;11.13;;
29724;SDS011;16636;48.394;15.468;2023-01-25T09:16:03;44.10;;;16.15;;
29724;SDS011;16636;48.394;15.468;2023-01-25T09:18:31;42.75;;;16.70;;
29724;SDS011;16636;48.394;15.468;2023-01-25T09:20:59;37.58;;;13.98;;
29724;SDS011;16636;48.394;15.468;2023-01-25T09:23:29;31.25;;;12.57;;
29724;SDS011;16636;48.394;15.468;2023-01-25T09:25:56;33.30;;;11.02;;
29724;SDS011;16636;48.394;15.468;2023-01-25T09:28:24;26.23;;;9.25;;
29724;SDS011;16636;48.394;15.468;2023-01-25T09:30:57;23.60;;;9.68;;
29724;SDS011;16636;48.394;15.468;2023-01-25T09:33:40;25.17;;;9.63;;
29724;SDS011;16636;48.394;15.468;2023-01-25T09:36:06;62.97;;;20.83;;
29724;SDS011;16636;48.394;15.468;2023-01-25T09:38:33;33.28;;;13.32;;
29724;SDS011;16636;48.394;15.468;2023-01-25T09:43:35;30.05;;;12.85;;
29724;SDS011;16636;48.394;15.468;2023-01-25T09:46:40;35.85;;;13.77;;
29724;SDS011;16636;48.394;15.468;2023-01-25T09:54:38;27.85;;;10.65;;
29724;SDS011;16636;48.394;15.468;2023-01-25T09:57:16;23.60;;;9.68;;
29724;SDS011;16636;48.394;15.468;2023-01-25T09:59:51;23.42;;;10.95;;
29724;SDS011;16636;48.394;15.468;2023-01-25T10:02:41;24.20;;;9.98;;
29724;SDS011;16636;48.394;15.468;2023-01-25T10:05:06;19.35;;;8.02;;
29724;SDS011;16636;48.394;15.468;2023-01-25T10:12:57;22.98;;;8.63;;
29724;SDS011;16636;48.394;15.468;2023-01-25T10:15:27;20.77;;;7.57;;
29724;SDS011;16636;48.394;15.468;2023-01-25T10:18:11;22.45;;;8.27;;
29724;SDS011;16636;48.394;15.468;2023-01-25T10:20:54;20.17;;;8.23;;
29724;SDS011;16636;48.394;15.468;2023-01-25T10:26:23;20.30;;;8.07;;
29724;SDS011;16636;48.394;15.468;2023-01-25T10:29:02;21.08;;;8.38;;
29724;SDS011;16636;48.394;15.468;2023-01-25T10:31:43;18.35;;;7.00;;
29724;SDS011;16636;48.394;15.468;2023-01-25T10:34:25;18.75;;;8.15;;
29724;SDS011;16636;48.394;15.468;2023-01-25T10:36:56;19.25;;;8.23;;
29724;SDS011;16636;48.394;15.468;2023-01-25T10:39:25;20.63;;;6.78;;
29724;SDS011;16636;48.394;15.468;2023-01-25T10:44:20;14.13;;;6.50;;
29724;SDS011;16636;48.394;15.468;2023-01-25T10:46:48;17.67;;;7.20;;
29724;SDS011;16636;48.394;15.468;2023-01-25T10:52:16;19.25;;;8.25;;
29724;SDS011;16636;48.394;15.468;2023-01-25T10:54:43;12.90;;;6.95;;
29724;SDS011;16636;48.394;15.468;2023-01-25T10:57:11;21.80;;;7.90;;
29724;SDS011;16636;48.394;15.468;2023-01-25T10:59:43;18.02;;;8.55;;
29724;SDS011;16636;48.394;15.468;2023-01-25T11:07:43;17.55;;;7.30;;
29724;SDS011;16636;48.394;15.468;2023-01-25T11:16:26;17.45;;;6.95;;
29724;SDS011;16636;48.394;15.468;2023-01-25T11:18:56;20.73;;;8.53;;
29724;SDS011;16636;48.394;15.468;2023-01-25T11:21:27;17.77;;;8.63;;
29724;SDS011;16636;48.394;15.468;2023-01-25T11:26:41;20.17;;;7.88;;
29724;SDS011;16636;48.394;15.468;2023-01-25T11:29:14;24.15;;;11.30;;
29724;SDS011;16636;48.394;15.468;2023-01-25T11:31:44;14.90;;;6.70;;
29724;SDS011;16636;48.394;15.468;2023-01-25T11:34:19;19.52;;;7.82;;
29724;SDS011;16636;48.394;15.468;2023-01-25T11:36:55;17.23;;;8.27;;
29724;SDS011;16636;48.394;15.468;2023-01-25T11:40:20;19.23;;;8.45;;
29724;SDS011;16636;48.394;15.468;2023-01-25T11:43:06;17.80;;;7.68;;
29724;SDS011;16636;48.394;15.468;2023-01-25T11:51:05;21.45;;;8.60;;
29724;SDS011;16636;48.394;15.468;2023-01-25T11:56:49;18.33;;;9.10;;
29724;SDS011;16636;48.394;15.468;2023-01-25T12:04:55;15.60;;;6.65;;
29724;SDS011;16636;48.394;15.468;2023-01-25T12:08:16;16.10;;;7.05;;
29724;SDS011;16636;48.394;15.468;2023-01-25T12:29:55;18.65;;;7.95;;
29724;SDS011;16636;48.394;15.468;2023-01-25T12:32:44;16.75;;;7.85;;
29724;SDS011;16636;48.394;15.468;2023-01-25T12:35:24;16.00;;;6.60;;
29724;SDS011;16636;48.394;15.468;2023-01-25T12:38:03;16.90;;;7.50;;
29724;SDS011;16636;48.394;15.468;2023-01-25T12:40:44;14.70;;;6.13;;
29724;SDS011;16636;48.394;15.468;2023-01-25T12:46:25;15.73;;;7.40;;
29724;SDS011;16636;48.394;15.468;2023-01-25T12:49:35;15.10;;;6.95;;
29724;SDS011;16636;48.394;15.468;2023-01-25T12:52:27;15.25;;;7.55;;
29724;SDS011;16636;48.394;15.468;2023-01-25T12:55:01;20.02;;;9.23;;
29724;SDS011;16636;48.394;15.468;2023-01-25T13:00:31;18.55;;;7.97;;
29724;SDS011;16636;48.394;15.468;2023-01-25T13:03:20;15.35;;;7.05;;
29724;SDS011;16636;48.394;15.468;2023-01-25T13:11:31;18.92;;;9.18;;
29724;SDS011;16636;48.394;15.468;2023-01-25T13:16:43;25.80;;;9.23;;
29724;SDS011;16636;48.394;15.468;2023-01-25T13:21:44;20.80;;;8.07;;
29724;SDS011;16636;48.394;15.468;2023-01-25T13:24:13;24.40;;;8.38;;
29724;SDS011;16636;48.394;15.468;2023-01-25T13:32:11;26.25;;;10.80;;
29724;SDS011;16636;48.394;15.468;2023-01-25T13:37:16;18.65;;;7.63;;
29724;SDS011;16636;48.394;15.468;2023-01-25T13:39:45;16.38;;;7.15;;
29724;SDS011;16636;48.394;15.468;2023-01-25T13:44:41;23.88;;;9.55;;
29724;SDS011;16636;48.394;15.468;2023-01-25T13:47:11;18.90;;;7.43;;
29724;SDS011;16636;48.394;15.468;2023-01-25T13:49:46;19.70;;;9.48;;
29724;SDS011;16636;48.394;15.468;2023-01-25T13:52:18;23.00;;;9.43;;
29724;SDS011;16636;48.394;15.468;2023-01-25T13:54:47;17.38;;;7.82;;
29724;SDS011;16636;48.394;15.468;2023-01-25T13:57:17;18.83;;;9.07;;
29724;SDS011;16636;48.394;15.468;2023-01-25T14:00:02;16.73;;;7.82;;
29724;SDS011;16636;48.394;15.468;2023-01-25T14:02:30;29.35;;;11.85;;
29724;SDS011;16636;48.394;15.468;2023-01-25T14:04:59;32.38;;;12.68;;
29724;SDS011;16636;48.394;15.468;2023-01-25T14:07:30;29.25;;;10.55;;
29724;SDS011;16636;48.394;15.468;2023-01-25T14:09:59;21.88;;;8.88;;
29724;SDS011;16636;48.394;15.468;2023-01-25T14:12:35;22.73;;;8.57;;
29724;SDS011;16636;48.394;15.468;2023-01-25T14:20:44;79.35;;;22.75;;
29724;SDS011;16636;48.394;15.468;2023-01-25T14:23:22;35.60;;;14.95;;
29724;SDS011;16636;48.394;15.468;2023-01-25T14:25:51;47.58;;;16.40;;
29724;SDS011;16636;48.394;15.468;2023-01-25T14:28:18;43.88;;;15.20;;
29724;SDS011;16636;48.394;15.468;2023-01-25T14:30:49;50.47;;;17.27;;
29724;SDS011;16636;48.394;15.468;2023-01-25T14:33:24;51.45;;;17.40;;
29724;SDS011;16636;48.394;15.468;2023-01-25T14:36:02;28.80;;;11.85;;
29724;SDS011;16636;48.394;15.468;2023-01-25T14:38:35;36.20;;;13.35;;
29724;SDS011;16636;48.394;15.468;2023-01-25T14:44:12;51.35;;;18.70;;
29724;SDS011;16636;48.394;15.468;2023-01-25T14:46:40;25.83;;;11.35;;
29724;SDS011;16636;48.394;15.468;2023-01-25T14:49:16;33.30;;;13.15;;
29724;SDS011;16636;48.394;15.468;2023-01-25T14:52:02;26.67;;;10.45;;
29724;SDS011;16636;48.394;15.468;2023-01-25T14:54:35;23.85;;;10.00;;
29724;SDS011;16636;48.394;15.468;2023-01-25T14:57:29;23.25;;;9.60;;
29724;SDS011;16636;48.394;15.468;2023-01-25T14:59:58;26.92;;;11.80;;
29724;SDS011;16636;48.394;15.468;2023-01-25T15:02:37;31.80;;;11.35;;
29724;SDS011;16636;48.394;15.468;2023-01-25T15:07:45;21.23;;;9.15;;
29724;SDS011;16636;48.394;15.468;2023-01-25T15:10:32;25.58;;;10.48;;
29724;SDS011;16636;48.394;15.468;2023-01-25T15:15:49;25.77;;;12.80;;
29724;SDS011;16636;48.394;15.468;2023-01-25T15:18:40;27.05;;;12.13;;
29724;SDS011;16636;48.394;15.468;2023-01-25T15:21:28;29.25;;;11.70;;
29724;SDS011;16636;48.394;15.468;2023-01-25T15:24:00;43.78;;;19.08;;
29724;SDS011;16636;48.394;15.468;2023-01-25T15:26:31;41.88;;;17.73;;
29724;SDS011;16636;48.394;15.468;2023-01-25T15:29:21;26.02;;;12.70;;
29724;SDS011;16636;48.394;15.468;2023-01-25T15:31:47;26.17;;;11.65;;
29724;SDS011;16636;48.394;15.468;2023-01-25T15:34:19;27.10;;;12.02;;
29724;SDS011;16636;48.394;15.468;2023-01-25T15:36:49;33.28;;;14.05;;
29724;SDS011;16636;48.394;15.468;2023-01-25T15:39:16;67.72;;;26.50;;
29724;SDS011;16636;48.394;15.468;2023-01-25T15:41:44;61.80;;;24.27;;
29724;SDS011;16636;48.394;15.468;2023-01-25T15:44:11;46.90;;;20.27;;
29724;SDS011;16636;48.394;15.468;2023-01-25T15:46:41;37.70;;;15.07;;
29724;SDS011;16636;48.394;15.468;2023-01-25T15:49:12;33.28;;;13.88;;
29724;SDS011;16636;48.394;15.468;2023-01-25T15:51:52;43.80;;;15.80;;
29724;SDS011;16636;48.394;15.468;2023-01-25T15:54:19;48.28;;;19.63;;
29724;SDS011;16636;48.394;15.468;2023-01-25T15:56:46;54.47;;;20.83;;
29724;SDS011;16636;48.394;15.468;2023-01-25T15:59:17;41.03;;;14.77;;
29724;SDS011;16636;48.394;15.468;2023-01-25T16:01:43;25.98;;;11.52;;
29724;SDS011;16636;48.394;15.468;2023-01-25T16:04:10;28.55;;;13.15;;
29724;SDS011;16636;48.394;15.468;2023-01-25T16:06:40;30.27;;;12.52;;
29724;SDS011;16636;48.394;15.468;2023-01-25T16:09:18;27.83;;;12.10;;
29724;SDS011;16636;48.394;15.468;2023-01-25T16:11:50;30.77;;;11.30;;
29724;SDS011;16636;48.394;15.468;2023-01-25T16:14:19;34.75;;;13.45;;
29724;SDS011;16636;48.394;15.468;2023-01-25T16:16:48;25.08;;;10.45;;
29724;SDS011;16636;48.394;15.468;2023-01-25T16:19:17;26.08;;;11.13;;
29724;SDS011;16636;48.394;15.468;2023-01-25T16:21:44;26.80;;;11.45;;
29724;SDS011;16636;48.394;15.468;2023-01-25T16:24:10;26.08;;;11.50;;
29724;SDS011;16636;48.394;15.468;2023-01-25T16:26:37;22.15;;;9.90;;
29724;SDS011;16636;48.394;15.468;2023-01-25T16:29:12;26.90;;;10.90;;
29724;SDS011;16636;48.394;15.468;2023-01-25T16:31:39;27.65;;;11.73;;
29724;SDS011;16636;48.394;15.468;2023-01-25T16:34:05;30.38;;;13.23;;
29724;SDS011;16636;48.394;15.468;2023-01-25T16:36:31;28.02;;;11.95;;
29724;SDS011;16636;48.394;15.468;2023-01-25T16:39:20;25.63;;;11.10;;
29724;SDS011;16636;48.394;15.468;2023-01-25T16:41:46;41.15;;;17.15;;
29724;SDS011;16636;48.394;15.468;2023-01-25T16:44:13;31.60;;;13.30;;